Latest Weather Observations for Middle Percy Island

IDQ60801

Issued at 8:05 am EST Tuesday 23 September 2014 (issued every 30 minutes, with the page automatically refreshed every 10 minutes)

About weather observations | Map of weather stations | Latest weather observations for QLD | Other Formats
Station Details ID: 200001 Name: MIDDLE PERCY ISLAND Lat: -21.66 Lon: 150.27 Height: 208.7 m
Data from the previous 72 hours. | See also: Recent months at Middle Percy Island
Date/Time
EST
Temp
°C
App
Temp
°C
Dew
Point
Rel
Hum
%
Delta-T
°C
Wind Press
QNH
hPa
Press
MSL
hPa
Rain
since 9 am
mm
Dir
 
Spd
km/h
Gust
km/h
Spd
kts
Gust
kts
23/08:00am 20.9 19.3 16.5 76 2.7 ESE 20 39 11 21 1022.9 1022.1 2.6
23/07:30am 20.4 18.7 16.2 77 2.5 SE 20 35 11 19 1022.5 1021.7 2.6
23/07:00am 20.0 18.5 16.4 80 2.2 ESE 19 37 10 20 1022.1 1021.3 2.6
23/06:30am 19.5 17.2 16.7 84 1.7 ESE 24 37 13 20 1021.7 1020.9 2.6
23/06:00am 19.1 17.5 17.4 90 1.0 ESE 22 35 12 19 1021.5 1020.7 2.6
23/05:30am 18.4 18.4 17.1 92 0.8 ESE 13 22 7 12 1021.1 1020.3 2.6
23/05:00am 18.3 16.4 16.6 90 1.0 ESE 22 39 12 21 1020.8 1020.0 2.2
23/04:30am 18.3 17.9 16.3 88 1.2 ESE 13 28 7 15 1020.8 1020.0 2.2
23/04:00am 18.3 15.8 16.1 87 1.3 ESE 24 41 13 22 1020.4 1019.6 2.2
23/03:30am 18.8 18.6 16.6 87 1.3 E 13 39 7 21 1020.1 1019.3 2.2
23/03:00am 18.1 15.5 16.8 92 0.8 ESE 26 41 14 22 1020.4 1019.6 2.2
23/02:30am 17.5 15.9 16.5 94 0.6 ESE 20 32 11 17 1020.2 1019.4 2.2
23/02:00am 17.3 15.0 16.7 96 0.4 ESE 24 37 13 20 1020.5 1019.7 2.2
23/01:34am 17.7 14.9 17.2 97 0.3 ESE 28 48 15 26 1020.9 1020.1 2.2
23/01:30am 17.5 13.8 16.9 96 0.4 ESE 32 48 17 26 1020.9 1020.1 2.2
23/01:07am 17.5 13.1 16.7 95 0.5 ESE 35 54 19 29 1020.9 1020.1 2.0
23/01:00am 17.5 12.9 17.0 97 0.3 ESE 37 50 20 27 1021.0 1020.2 2.0
23/12:39am 17.4 12.7 16.8 96 0.4 ESE 37 57 20 31 1021.1 1020.3 2.0
23/12:30am 17.7 13.2 17.4 98 0.2 ESE 37 54 20 29 1021.3 1020.5 2.0
23/12:18am 17.6 13.1 17.4 99 0.1 ESE 37 56 20 30 1021.4 1020.6 1.8
23/12:01am 17.4 14.1 17.1 98 0.2 SSE 30 50 16 27 1021.6 1020.8 0.6
23/12:00am 17.4 13.8 17.1 98 0.2 SSE 32 50 17 27 1021.6 1020.8 0.6
 
Date/Time
EST
Temp
°C
App
Temp
°C
Dew
Point
Rel
Hum
%
Delta-T
°C
Wind Press
QNH
hPa
Press
MSL
hPa
Rain
since 9 am
mm
Dir
 
Spd
km/h
Gust
km/h
Spd
kts
Gust
kts
22/11:56pm 17.4 14.1 17.1 98 0.2 SSE 30 50 16 27 1021.6 1020.8 0.6
22/11:30pm 17.6 14.8 17.3 98 0.2 SSE 28 39 15 21 1021.6 1020.8 0.6
22/11:00pm 17.4 14.8 16.9 97 0.3 SE 26 39 14 21 1022.2 1021.4 0.6
22/10:34pm 18.3 15.4 17.0 92 0.8 SE 28 52 15 28 1021.7 1020.9 0.6
22/10:30pm 19.0 16.7 17.7 92 0.8 SE 26 35 14 19 1022.0 1021.2 0.6
22/10:00pm 19.0 18.7 17.3 90 1.0 ESE 15 24 8 13 1022.2 1021.4 0.6
22/09:30pm 19.1 18.0 17.4 90 1.0 ESE 19 30 10 16 1022.3 1021.5 0.6
22/09:00pm 19.1 17.0 17.2 89 1.2 ESE 24 39 13 21 1022.6 1021.8 0.6
22/08:30pm 19.6 18.8 17.0 85 1.6 ESE 17 28 9 15 1022.5 1021.7 0.6
22/08:00pm 19.6 19.7 16.4 82 1.9 ESE 11 20 6 11 1022.1 1021.3 0.6
22/07:30pm 19.8 19.2 16.6 82 1.9 ENE 15 30 8 16 1021.6 1020.8 0.6
22/07:00pm 20.0 17.9 16.2 79 2.3 ENE 22 41 12 22 1021.0 1020.2 0.6
22/06:30pm 20.1 18.7 16.9 82 2.0 ENE 20 39 11 21 1020.1 1019.3 0.6
22/06:00pm 19.8 20.2 17.2 85 1.6 E 11 28 6 15 1019.9 1019.1 0.6
22/05:30pm 19.8 19.6 16.8 83 1.8 ESE 13 24 7 13 1020.0 1019.2 0.6
22/05:00pm 20.4 18.9 16.4 78 2.4 ENE 19 35 10 19 1019.3 1018.5 0.6
22/04:30pm 20.8 18.1 15.6 72 3.1 ENE 24 37 13 20 1019.0 1018.2 0.6
22/04:00pm 21.1 18.9 15.9 72 3.1 ENE 22 37 12 20 1018.8 1018.0 0.6
22/03:30pm 21.6 19.8 16.1 71 3.3 ENE 20 32 11 17 1018.7 1017.9 0.6
22/03:00pm 20.9 19.0 15.2 70 3.4 ENE 19 32 10 17 1018.8 1018.0 0.6
22/02:30pm 19.9 15.9 15.3 75 2.7 NE 30 50 16 27 1018.5 1017.7 0.6
22/02:27pm 20.1 16.3 15.7 76 2.6 NE 30 50 16 27 1018.7 1017.9 0.6
22/02:00pm 19.6 15.8 16.8 84 1.7 NE 32 44 17 24 1018.7 1017.9 0.6
22/01:30pm 20.9 18.0 15.2 70 3.4 ENE 24 43 13 23 1019.1 1018.3 0.6
22/01:00pm 21.6 19.2 16.3 72 3.2 ENE 24 39 13 21 1019.3 1018.5 0.6
22/12:30pm 22.6 18.6 15.2 63 4.4 ENE 30 46 16 25 1019.6 1018.8 0.6
22/12:00pm 22.8 20.3 16.1 66 4.1 ENE 24 39 13 21 1020.2 1019.4 0.6
22/11:30am 22.4 19.7 15.7 66 4.1 ENE 24 46 13 25 1020.6 1019.8 0.6
22/11:00am 22.1 19.6 16.1 69 3.6 E 24 41 13 22 1021.1 1020.3 0.6
22/10:30am 21.2 22.0 17.2 78 2.5 E 9 22 5 12 1021.3 1020.5 0.6
22/10:00am 20.4 20.2 16.8 80 2.2 E 13 26 7 14 1021.6 1020.8 0.6
22/09:30am 18.2 15.7 16.2 88 1.2 NE 24 35 13 19 1021.6 1020.8 0.6
22/09:00am 19.9 19.9 16.3 80 2.2 E 11 28 6 15 1021.8 1021.0 1.6
22/08:30am 20.4 19.9 15.8 75 2.8 E 13 30 7 16 1021.8 1021.0 1.6
22/08:00am 20.3 18.9 15.5 74 2.9 E 17 37 9 20 1021.9 1021.1 1.6
22/07:30am 20.4 19.4 14.7 70 3.4 E 13 30 7 16 1021.4 1020.6 1.6
22/07:00am 20.2 18.5 14.6 70 3.3 ENE 17 28 9 15 1020.9 1020.1 1.6
22/06:30am 19.8 17.8 14.0 69 3.4 E 17 41 9 22 1020.4 1019.6 1.6
22/06:00am 19.3 17.4 14.3 73 2.9 E 17 33 9 18 1019.5 1018.7 1.6
22/05:30am 19.1 17.0 14.8 76 2.5 ENE 19 35 10 19 1019.5 1018.7 1.6
22/05:00am 17.9 17.3 15.7 87 1.3 E 13 30 7 16 1019.3 1018.5 1.6
22/04:30am 17.2 14.7 16.1 93 0.7 ENE 24 44 13 24 1019.4 1018.6 1.4
22/04:00am 17.9 16.6 15.7 87 1.3 ENE 17 35 9 19 1019.2 1018.4 1.2
22/03:30am 18.5 16.4 15.2 81 1.9 ENE 20 39 11 21 1019.2 1018.4 1.2
22/03:00am 19.5 19.3 15.8 79 2.2 E 11 20 6 11 1019.3 1018.5 1.2
22/02:30am 19.2 17.8 15.5 79 2.2 E 17 30 9 16 1019.5 1018.7 1.2
22/02:00am 18.9 17.8 15.4 80 2.1 E 15 30 8 16 1020.0 1019.2 1.2
22/01:30am 19.2 17.9 15.7 80 2.1 ENE 17 24 9 13 1020.5 1019.7 0.4
22/01:00am 19.5 18.5 14.7 74 2.8 E 13 22 7 12 1020.6 1019.8 0.4
22/12:30am 19.6 19.5 15.9 79 2.2 ESE 11 20 6 11 1021.0 1020.2 0.4
22/12:00am 19.7 19.3 15.1 75 2.7 E 11 22 6 12 1021.7 1020.9 0.4
 
Date/Time
EST
Temp
°C
App
Temp
°C
Dew
Point
Rel
Hum
%
Delta-T
°C
Wind Press
QNH
hPa
Press
MSL
hPa
Rain
since 9 am
mm
Dir
 
Spd
km/h
Gust
km/h
Spd
kts
Gust
kts
21/11:30pm 19.6 19.2 16.1 80 2.1 ESE 13 30 7 16 1021.8 1021.0 0.4
21/11:00pm 19.7 18.7 15.6 77 2.4 E 15 26 8 14 1022.1 1021.3 0.4
21/10:30pm 19.6 19.5 15.9 79 2.2 ESE 11 22 6 12 1022.1 1021.3 0.4
21/10:00pm 19.6 19.1 15.0 75 2.7 E 11 26 6 14 1022.2 1021.4 0.4
21/09:30pm 19.6 19.9 15.9 79 2.2 E 9 19 5 10 1022.0 1021.2 0.4
21/09:00pm 19.6 19.5 15.9 79 2.2 ESE 11 19 6 10 1022.0 1021.2 0.4
21/08:30pm 19.7 19.3 16.2 80 2.1 E 13 26 7 14 1021.8 1021.0 0.4
21/08:00pm 19.5 19.6 15.6 78 2.3 E 9 22 5 12 1021.7 1020.9 0.4
21/07:30pm 19.4 18.1 15.9 80 2.1 ENE 17 26 9 14 1021.4 1020.6 0.4
21/07:00pm 18.9 18.8 16.1 84 1.7 E 11 24 6 13 1021.1 1020.3 0.4
21/06:30pm 19.2 19.0 16.8 86 1.5 E 13 28 7 15 1020.9 1020.1 0.4
21/06:00pm 18.8 18.7 16.0 84 1.7 E 11 24 6 13 1021.0 1020.2 0.2
21/05:30pm 20.1 19.3 15.1 73 3.0 ESE 13 24 7 13 1020.8 1020.0 0.0
21/05:00pm 20.5 20.1 15.3 72 3.1 ESE 11 24 6 13 1020.7 1019.9 0.0
21/04:30pm 20.7 19.5 15.0 70 3.4 ESE 15 22 8 12 1020.6 1019.8 0.0
21/04:00pm 21.3 20.2 15.4 69 3.5 ESE 15 26 8 14 1020.5 1019.7 0.0
21/03:30pm 20.9 19.1 15.4 71 3.3 SE 19 28 10 15 1020.5 1019.7 0.0
21/03:00pm 22.0 20.1 15.8 68 3.7 ESE 20 32 11 17 1020.7 1019.9 0.0
21/02:30pm 21.9 19.5 15.3 66 4.0 ESE 22 35 12 19 1020.6 1019.8 0.0
21/02:00pm 21.1 18.6 15.2 69 3.5 SE 22 35 12 19 1020.6 1019.8 0.0
21/01:30pm 21.5 19.2 15.6 69 3.6 SE 22 37 12 20 1020.8 1020.0 0.0
21/01:00pm 21.9 20.1 15.5 67 3.8 ESE 19 33 10 18 1020.9 1020.1 0.0
21/12:30pm 21.4 18.7 15.5 69 3.5 ESE 24 39 13 21 1021.3 1020.5 0.0
21/12:00pm 21.9 19.2 15.7 68 3.7 SE 24 44 13 24 1021.5 1020.7 0.0
21/11:30am 21.5 18.9 16.0 71 3.3 SE 24 39 13 21 1021.6 1020.8 0.0
21/11:00am 21.9 19.6 15.7 68 3.7 ESE 22 39 12 21 1021.7 1020.9 0.0
21/10:30am 22.2 19.9 15.8 67 3.9 ESE 22 37 12 20 1022.1 1021.3 0.0
21/10:00am 22.4 19.8 16.0 67 3.9 SE 24 32 13 17 1022.1 1021.3 0.0
21/09:30am 21.1 20.1 15.6 71 3.3 ESE 15 30 8 16 1022.0 1021.2 0.0
21/09:00am 21.1 19.5 15.9 72 3.1 ESE 19 33 10 18 1022.0 1021.2 0.0
21/08:30am 20.7 19.3 15.5 72 3.1 ESE 17 28 9 15 1022.2 1021.4 0.0
21/08:00am 20.7 19.1 16.1 75 2.8 ESE 19 32 10 17 1022.1 1021.3 0.0
21/07:30am 20.4 20.4 16.2 77 2.5 ESE 11 20 6 11 1021.9 1021.1 0.0
21/07:00am 20.2 19.4 16.2 78 2.4 ESE 15 28 8 15 1021.5 1020.7 0.0
21/06:30am 19.6 19.5 16.1 80 2.1 ESE 11 20 6 11 1020.9 1020.1 0.0
21/06:00am 19.3 19.2 16.0 81 2.0 E 11 20 6 11 1020.4 1019.6 0.0
21/05:30am 19.2 19.1 16.1 82 1.9 E 11 20 6 11 1019.9 1019.1 0.0
21/05:00am 19.3 19.2 16.0 81 2.0 E 11 20 6 11 1019.7 1018.9 0.0
21/04:30am 19.4 20.0 15.9 80 2.1 E 7 19 4 10 1019.6 1018.8 0.0
21/04:00am 19.4 19.7 15.9 80 2.1 E 9 20 5 11 1019.2 1018.4 0.0
21/03:30am 19.5 19.4 16.0 80 2.1 E 11 19 6 10 1019.0 1018.2 0.0
21/03:00am 19.4 18.9 15.9 80 2.1 ENE 13 19 7 10 1019.0 1018.2 0.0
21/02:30am 19.5 18.7 16.0 80 2.1 ENE 15 24 8 13 1019.2 1018.4 0.0
21/02:00am 19.6 18.4 16.1 80 2.1 ENE 17 24 9 13 1019.3 1018.5 0.0
21/01:30am 19.7 18.4 15.8 78 2.3 ENE 17 28 9 15 1019.7 1018.9 0.0
21/01:00am 19.7 18.4 15.8 78 2.3 NE 17 28 9 15 1019.7 1018.9 0.0
21/12:30am 19.8 18.2 16.1 79 2.2 NE 19 28 10 15 1020.2 1019.4 0.0
21/12:00am 19.8 18.3 16.4 81 2.1 ENE 19 30 10 16 1020.2 1019.4 0.0
 
Date/Time
EST
Temp
°C
App
Temp
°C
Dew
Point
Rel
Hum
%
Delta-T
°C
Wind Press
QNH
hPa
Press
MSL
hPa
Rain
since 9 am
mm
Dir
 
Spd
km/h
Gust
km/h
Spd
kts
Gust
kts
20/11:30pm 19.9 18.2 16.2 79 2.2 NE 20 32 11 17 1020.2 1019.4 0.0
20/11:00pm 19.9 17.4 16.2 79 2.2 NE 24 39 13 21 1020.1 1019.3 0.0
20/10:30pm 20.0 17.4 16.0 78 2.4 ENE 24 35 13 19 1020.2 1019.4 0.0
20/10:00pm 20.0 17.7 16.6 81 2.1 ENE 24 41 13 22 1020.4 1019.6 0.0
20/09:30pm 20.0 17.9 16.2 79 2.3 ENE 22 35 12 19 1020.4 1019.6 0.0
20/09:00pm 20.0 17.9 16.2 79 2.3 ENE 22 33 12 18 1020.2 1019.4 0.0
20/08:30pm 19.9 17.7 16.0 78 2.3 NE 22 39 12 21 1020.0 1019.2 0.0
20/08:00pm 19.9 17.6 15.7 77 2.5 ENE 22 33 12 18 1019.7 1018.9 0.0
20/07:30pm 20.1 17.3 15.3 74 2.9 ENE 24 37 13 20 1019.4 1018.6 0.0
20/07:00pm 20.0 17.4 15.8 77 2.5 ENE 24 37 13 20 1019.0 1018.2 0.0
20/06:30pm 20.0 17.8 16.0 78 2.4 ENE 22 37 12 20 1018.6 1017.8 0.0
20/06:00pm 20.0 17.4 16.0 78 2.4 ENE 24 37 13 20 1018.1 1017.3 0.0
20/05:30pm 20.2 18.7 16.2 78 2.4 ENE 19 24 10 13 1017.6 1016.8 0.0
20/05:00pm 20.5 18.7 15.9 75 2.8 ENE 20 33 11 18 1017.1 1016.3 0.0
20/04:30pm 21.1 19.5 16.1 73 3.0 ENE 19 30 10 16 1016.9 1016.1 0.0
20/04:00pm 21.7 21.3 16.2 71 3.3 E 13 26 7 14 1016.8 1016.0 0.0
20/03:30pm 21.7 19.5 16.0 70 3.5 ENE 22 30 12 16 1016.6 1015.8 0.0
20/03:00pm 22.6 21.1 16.2 67 3.9 ENE 19 28 10 15 1016.8 1016.0 0.0
20/02:30pm 22.6 21.2 16.9 70 3.5 ESE 20 28 11 15 1017.1 1016.3 0.0
20/02:00pm 23.7 22.6 17.2 67 4.0 ESE 19 28 10 15 1017.5 1016.7 0.0
20/01:30pm 23.7 22.6 17.2 67 4.1 SE 19 28 10 15 1017.7 1016.9 0.0
20/01:00pm 23.8 22.9 16.8 65 4.3 ESE 17 26 9 14 1018.1 1017.3 0.0
20/12:30pm 24.2 24.5 17.0 64 4.5 ENE 11 20 6 11 1018.4 1017.6 0.0
20/12:00pm 23.4 23.1 16.4 64 4.3 ENE 13 24 7 13 1018.7 1017.9 0.0
20/11:30am 22.9 22.1 16.2 66 4.1 SE 15 20 8 11 1019.1 1018.3 0.0
20/11:00am 23.5 23.3 16.8 66 4.1 ESE 13 17 7 9 1019.7 1018.9 0.0
20/10:30am 24.3 25.0 17.1 64 4.5 SE 9 15 5 8 1020.1 1019.3 0.0
20/10:00am 24.3 24.8 16.6 62 4.8 NE 9 15 5 8 1020.1 1019.3 0.0
20/09:30am 24.0 25.0 16.8 64 4.5 N 7 11 4 6 1020.4 1019.6 0.0
20/09:00am 22.7 23.8 15.5 64 4.3 NNW 4 7 2 4 1020.4 1019.6 0.0
20/08:30am 22.0 22.9 16.5 71 3.4 NW 7 9 4 5 1020.5 1019.7 0.0

Other Formats:

Comma delimited format used in spreadsheet applications
http://www.bom.gov.au/fwo/IDQ60801/IDQ60801.94372.axf

JavaScript Object Notation format (JSON) in row-major order
http://www.bom.gov.au/fwo/IDQ60801/IDQ60801.94372.json